Main page
Satellite images 15-day forecastsClimateMarine weather Cyclones Lightning AirportsFAQ Newsletter About
Weather : Europe Africa North America South America Asia Australia-Oceania Others
Languages Contact

Mexicali, Mexico

General Rodolfo Sánchez Taboada

latitude: 32-37-50N, longitude: 115-14-30W, elevation: 22 m


METAR: MMML 270343Z 35005KT 10SM SKC 16/00 A3017
TAF: MMML 261632Z 2618/2718 32006KT P6SM SKC BECMG 2620/2621 34012KT FM270200 34006KT P6SM SKC BECMG 2705/2706 00000KT FM271800 36005KT P6SM SKC

Time: 22:01 (04:01 UTC)

Current weather observation

The report was made 18 minutes ago, at 03:43 UTC
Wind 5 kt from the North
Temperature 16°C
Humidity 34%
Pressure 1022 hPa
Visibility: 16.1 km
Clear sky

Change units

Forecast

The report was made 11 hours and 29 minutes ago, at 16:32 UTC
Forecast valid from 26 at 18 UTC to 27 at 18 UTC
Wind 6 kt from the Northwest
Visibility: 10 km
Clear sky
Becoming
from 26 at 20 UTC to 26 at 21 UTC
Wind 12 kt from the North/Northwest
From 27 at 0200 UTC
Wind 6 kt from the North/Northwest
Visibility: 10 km
Clear sky
Becoming
from 27 at 05 UTC to 27 at 06 UTC
Wind kt from the North
From 27 at 1800 UTC
Wind 5 kt from the North
Visibility: 10 km
Clear sky
The information on this site is subject to a disclaimer
Weather : Europe Africa North America South America Asia Australia-Oceania Others
Satellite images 15-day forecastsClimateMarine weather Cyclones Lightning AirportsFAQ Languages Contact Newsletter About